Time;durP1;ratioP1;P1;durP2;ratioP2;P2;SDS_P1;SDS_P2;PMS_P1;PMS_P2;Temp;Humidity;BMP_temperature;BMP_pressure;BME280_temperature;BME280_humidity;BME280_pressure;Samples;Min_cycle;Max_cycle;Signal;HPM_P1;HPM_P2
2023/03/23 00:00:40;;;;;;;42.13;31.27;;;;;;;;;;5031975;28;20105;-80
2023/03/23 00:03:06;;;;;;;38.55;29.58;;;;;;;;;;5031785;28;20494;-81
2023/03/23 00:05:32;;;;;;;40.53;29.63;;;;;;;;;;5031685;28;20029;-80
2023/03/23 00:08:01;;;;;;;41.30;30.55;;;;;;;;;;5032031;28;20028;-80
2023/03/23 00:10:32;;;;;;;44.22;30.55;;;;;;;;;;5031909;28;20116;-81
2023/03/23 00:13:02;;;;;;;39.22;29.25;;;;;;;;;;5031739;28;20309;-81
2023/03/23 00:15:33;;;;;;;37.10;28.20;;;;;;;;;;5031707;28;20032;-81
2023/03/23 00:18:02;;;;;;;39.25;29.90;;;;;;;;;;5033316;28;20025;-81
2023/03/23 00:20:29;;;;;;;39.85;29.00;;;;;;;;;;5036019;28;20017;-81
2023/03/23 00:22:59;;;;;;;38.88;28.63;;;;;;;;;;5036320;28;20108;-81
2023/03/23 00:25:25;;;;;;;36.78;27.88;;;;;;;;;;5035795;28;20026;-81
2023/03/23 00:27:51;;;;;;;37.97;28.23;;;;;;;;;;5035561;28;20410;-80
2023/03/23 00:30:17;;;;;;;34.97;26.17;;;;;;;;;;5035970;28;20120;-80
2023/03/23 00:32:44;;;;;;;33.40;26.77;;;;;;;;;;5035508;28;20029;-80
2023/03/23 00:35:10;;;;;;;35.38;26.38;;;;;;;;;;5035663;28;20057;-80
2023/03/23 00:37:35;;;;;;;33.70;25.25;;;;;;;;;;5035001;28;20060;-80
2023/03/23 00:40:06;;;;;;;32.17;24.20;;;;;;;;;;5035369;28;20057;-81
2023/03/23 00:42:36;;;;;;;31.58;23.90;;;;;;;;;;5035154;28;20025;-81
2023/03/23 00:45:06;;;;;;;29.63;23.58;;;;;;;;;;5035151;28;20026;-80
2023/03/23 00:47:35;;;;;;;27.70;22.40;;;;;;;;;;5035013;28;20095;-80
2023/03/23 00:50:02;;;;;;;27.98;22.58;;;;;;;;;;5035106;28;20545;-81
2023/03/23 00:52:28;;;;;;;27.52;22.80;;;;;;;;;;5035388;28;20577;-81
2023/03/23 00:54:54;;;;;;;28.55;22.30;;;;;;;;;;5034743;28;20479;-81
2023/03/23 00:57:23;;;;;;;31.75;22.92;;;;;;;;;;5034817;28;20046;-81
2023/03/23 00:59:50;;;;;;;30.13;23.08;;;;;;;;;;5034800;28;20014;-81
2023/03/23 01:02:16;;;;;;;28.02;22.00;;;;;;;;;;5034854;28;20076;-81
2023/03/23 01:04:44;;;;;;;28.25;22.88;;;;;;;;;;5034656;28;20101;-80
2023/03/23 01:07:12;;;;;;;29.42;22.40;;;;;;;;;;5034958;28;20030;-81
2023/03/23 01:09:44;;;;;;;29.08;21.77;;;;;;;;;;5034571;28;20033;-80
2023/03/23 01:12:10;;;;;;;29.92;22.30;;;;;;;;;;5034823;28;20498;-81
2023/03/23 01:14:36;;;;;;;27.88;21.42;;;;;;;;;;5034310;28;20033;-81
2023/03/23 01:17:02;;;;;;;30.60;22.45;;;;;;;;;;5034531;28;20179;-80
2023/03/23 01:19:29;;;;;;;28.85;21.58;;;;;;;;;;5034447;28;20486;-81
2023/03/23 01:21:55;;;;;;;27.33;21.98;;;;;;;;;;5034448;28;20502;-81
2023/03/23 01:24:21;;;;;;;27.50;20.90;;;;;;;;;;5034631;28;20033;-81
2023/03/23 01:26:47;;;;;;;27.50;21.20;;;;;;;;;;5034518;28;20475;-81
2023/03/23 01:29:14;;;;;;;28.75;21.25;;;;;;;;;;5033876;28;20510;-81
2023/03/23 01:31:42;;;;;;;23.10;19.63;;;;;;;;;;5034223;28;20495;-81
2023/03/23 01:34:08;;;;;;;28.33;20.60;;;;;;;;;;5034241;28;20029;-81
2023/03/23 01:36:35;;;;;;;25.85;20.33;;;;;;;;;;5034164;28;20029;-80
2023/03/23 01:39:03;;;;;;;25.95;20.25;;;;;;;;;;5034283;28;20471;-81
2023/03/23 01:41:29;;;;;;;24.17;19.73;;;;;;;;;;5034507;28;20029;-81
2023/03/23 01:43:57;;;;;;;27.88;21.05;;;;;;;;;;5034245;28;20087;-78
2023/03/23 01:46:23;;;;;;;26.50;20.50;;;;;;;;;;5034381;28;20048;-77
2023/03/23 01:48:50;;;;;;;25.98;19.70;;;;;;;;;;5033881;28;20693;-81
2023/03/23 01:51:19;;;;;;;26.05;19.25;;;;;;;;;;5034424;28;20112;-81
2023/03/23 01:53:54;;;;;;;25.50;19.58;;;;;;;;;;5033860;28;20026;-78
2023/03/23 01:56:24;;;;;;;28.20;19.23;;;;;;;;;;5033598;28;20049;-78
2023/03/23 01:58:51;;;;;;;23.58;19.05;;;;;;;;;;5033492;28;20030;-78
2023/03/23 02:01:17;;;;;;;23.92;19.33;;;;;;;;;;5033919;28;20382;-79
2023/03/23 02:03:44;;;;;;;23.73;18.83;;;;;;;;;;5033266;28;20017;-80
2023/03/23 02:06:11;;;;;;;25.25;19.42;;;;;;;;;;5033695;28;20026;-80
2023/03/23 02:08:37;;;;;;;25.33;19.27;;;;;;;;;;5033411;28;20025;-80
2023/03/23 02:11:09;;;;;;;23.17;18.60;;;;;;;;;;5033747;28;20075;-79
2023/03/23 02:13:35;;;;;;;22.17;17.85;;;;;;;;;;5033536;28;20381;-79
2023/03/23 02:18:50;;;;;;;22.08;17.77;;;;;;;;;;5130422;27;20111;-80
2023/03/23 02:21:35;;;;;;;21.02;17.33;;;;;;;;;;5110007;28;20024;-80
2023/03/23 02:24:21;;;;;;;21.10;17.30;;;;;;;;;;5094830;28;20027;-80
2023/03/23 02:26:51;;;;;;;21.50;17.30;;;;;;;;;;5094383;28;20099;-81
2023/03/23 02:32:12;;;;;;;22.23;17.90;;;;;;;;;;5130038;27;20306;-78
2023/03/23 02:34:43;;;;;;;22.95;17.23;;;;;;;;;;5130017;28;20111;-78
2023/03/23 02:37:15;;;;;;;20.98;16.40;;;;;;;;;;5130320;28;20030;-81
2023/03/23 02:39:44;;;;;;;19.15;16.20;;;;;;;;;;5130002;28;20015;-78
2023/03/23 02:42:13;;;;;;;19.50;16.17;;;;;;;;;;5129877;28;20073;-80
2023/03/23 02:44:41;;;;;;;19.63;16.70;;;;;;;;;;5129526;28;20027;-78
2023/03/23 02:47:09;;;;;;;20.00;15.95;;;;;;;;;;5130238;28;20020;-78
2023/03/23 02:49:37;;;;;;;20.88;16.20;;;;;;;;;;5129560;28;20103;-78
2023/03/23 02:52:14;;;;;;;20.95;16.05;;;;;;;;;;5129747;28;20447;-78
2023/03/23 02:54:42;;;;;;;18.80;15.75;;;;;;;;;;5129664;28;20016;-78
2023/03/23 02:57:09;;;;;;;20.10;15.45;;;;;;;;;;5129986;28;20046;-79
2023/03/23 02:59:35;;;;;;;21.92;16.25;;;;;;;;;;5129356;28;20056;-79
2023/03/23 03:02:03;;;;;;;19.67;16.10;;;;;;;;;;5129735;28;20020;-79
2023/03/23 03:04:31;;;;;;;19.25;15.85;;;;;;;;;;5129757;28;20513;-79
2023/03/23 03:07:17;;;;;;;19.50;15.90;;;;;;;;;;5129670;28;20028;-79
2023/03/23 03:09:48;;;;;;;18.63;14.82;;;;;;;;;;5114451;28;20027;-79
2023/03/23 03:12:24;;;;;;;18.80;15.07;;;;;;;;;;5129566;28;20019;-78
2023/03/23 03:14:55;;;;;;;20.23;15.60;;;;;;;;;;5129359;28;20648;-79
2023/03/23 03:17:24;;;;;;;18.00;14.43;;;;;;;;;;5130033;28;20027;-79
2023/03/23 03:19:53;;;;;;;17.75;14.82;;;;;;;;;;5130436;28;20037;-79
2023/03/23 03:22:20;;;;;;;19.13;15.07;;;;;;;;;;5131498;28;20102;-79
2023/03/23 03:24:47;;;;;;;17.38;14.95;;;;;;;;;;5131112;28;20348;-79
2023/03/23 03:27:16;;;;;;;17.80;14.98;;;;;;;;;;5129837;28;20034;-79
2023/03/23 03:29:45;;;;;;;18.73;14.50;;;;;;;;;;5129518;28;20028;-78
2023/03/23 03:32:13;;;;;;;21.77;15.63;;;;;;;;;;5129798;28;20475;-79
2023/03/23 03:34:39;;;;;;;18.30;14.65;;;;;;;;;;5128833;28;20390;-79
2023/03/23 03:37:06;;;;;;;18.23;14.73;;;;;;;;;;5129122;28;20061;-78
2023/03/23 03:39:36;;;;;;;18.27;14.25;;;;;;;;;;5128895;28;20071;-79
2023/03/23 03:42:02;;;;;;;16.83;13.77;;;;;;;;;;5122379;28;20027;-78
2023/03/23 03:44:28;;;;;;;17.63;13.93;;;;;;;;;;5115259;28;20116;-79
2023/03/23 03:46:54;;;;;;;18.40;13.63;;;;;;;;;;5114928;28;20020;-78
2023/03/23 03:49:20;;;;;;;18.52;13.88;;;;;;;;;;5115416;28;20062;-79
2023/03/23 03:51:46;;;;;;;15.32;13.13;;;;;;;;;;5114907;28;20038;-79
2023/03/23 03:54:12;;;;;;;17.90;13.32;;;;;;;;;;5115317;28;20023;-79
2023/03/23 03:56:40;;;;;;;19.20;13.55;;;;;;;;;;5115007;28;20023;-79
2023/03/23 03:59:07;;;;;;;16.38;12.68;;;;;;;;;;5115156;28;20022;-79
2023/03/23 04:01:33;;;;;;;17.52;14.07;;;;;;;;;;5114884;28;20024;-79
2023/03/23 04:03:59;;;;;;;18.30;14.52;;;;;;;;;;5115474;28;20036;-79
2023/03/23 04:06:27;;;;;;;17.95;13.23;;;;;;;;;;5115341;28;20028;-79
2023/03/23 04:08:55;;;;;;;15.48;13.63;;;;;;;;;;5114908;28;20467;-79
2023/03/23 04:11:21;;;;;;;17.50;13.40;;;;;;;;;;5114684;28;20028;-79
2023/03/23 04:13:47;;;;;;;16.65;13.57;;;;;;;;;;5114538;28;20104;-79
2023/03/23 04:16:13;;;;;;;18.27;13.43;;;;;;;;;;5114620;28;20020;-80
2023/03/23 04:18:42;;;;;;;16.48;12.73;;;;;;;;;;5114750;28;20129;-79
2023/03/23 04:21:08;;;;;;;16.88;13.77;;;;;;;;;;5114523;28;20137;-79
2023/03/23 04:23:35;;;;;;;16.48;12.95;;;;;;;;;;5114423;28;20028;-79
2023/03/23 04:26:03;;;;;;;16.85;13.15;;;;;;;;;;5114845;28;20034;-79
2023/03/23 04:28:33;;;;;;;18.13;13.90;;;;;;;;;;5114815;28;20038;-79
2023/03/23 04:31:00;;;;;;;16.17;12.80;;;;;;;;;;5114524;28;20039;-80
2023/03/23 04:33:26;;;;;;;16.95;12.95;;;;;;;;;;5114608;28;20464;-79
2023/03/23 04:35:54;;;;;;;19.08;13.90;;;;;;;;;;5114231;28;20034;-79
2023/03/23 04:38:20;;;;;;;16.15;12.90;;;;;;;;;;5114529;28;20058;-79
2023/03/23 04:40:47;;;;;;;15.25;13.05;;;;;;;;;;5113799;28;20036;-79
2023/03/23 04:43:14;;;;;;;16.25;13.52;;;;;;;;;;5114131;28;20058;-79
2023/03/23 04:45:45;;;;;;;18.33;13.07;;;;;;;;;;5113729;28;20474;-79
2023/03/23 04:48:12;;;;;;;18.98;13.95;;;;;;;;;;5114079;28;20178;-79
2023/03/23 04:50:38;;;;;;;16.08;13.27;;;;;;;;;;5113443;28;20019;-79
2023/03/23 04:53:05;;;;;;;17.13;13.30;;;;;;;;;;5113103;28;20026;-79
2023/03/23 04:55:38;;;;;;;17.50;12.82;;;;;;;;;;5113284;28;20024;-79
2023/03/23 04:58:05;;;;;;;16.65;12.10;;;;;;;;;;5113964;28;20019;-79
2023/03/23 05:00:32;;;;;;;15.93;12.90;;;;;;;;;;5113455;28;20028;-79
2023/03/23 05:02:58;;;;;;;16.67;12.73;;;;;;;;;;5113831;28;20038;-79
2023/03/23 05:05:27;;;;;;;19.15;13.45;;;;;;;;;;5113800;28;20023;-79
2023/03/23 05:07:53;;;;;;;16.92;13.18;;;;;;;;;;5113519;28;20465;-79
2023/03/23 05:10:19;;;;;;;21.27;14.02;;;;;;;;;;5113387;28;20027;-79
2023/03/23 05:12:45;;;;;;;18.48;13.18;;;;;;;;;;5113413;28;20043;-79
2023/03/23 05:15:12;;;;;;;19.65;12.90;;;;;;;;;;5113539;28;20048;-80
2023/03/23 05:17:40;;;;;;;15.60;12.85;;;;;;;;;;5113424;28;20095;-80
2023/03/23 05:20:11;;;;;;;18.98;13.52;;;;;;;;;;5113462;28;20028;-80
2023/03/23 05:22:38;;;;;;;20.52;12.80;;;;;;;;;;5113152;28;20437;-80
2023/03/23 05:25:04;;;;;;;17.75;13.13;;;;;;;;;;5113130;28;20023;-79
2023/03/23 05:27:32;;;;;;;20.75;13.20;;;;;;;;;;5113387;28;20030;-79
2023/03/23 05:29:58;;;;;;;17.95;13.02;;;;;;;;;;5112727;28;20100;-79
2023/03/23 05:32:31;;;;;;;18.65;12.80;;;;;;;;;;5112883;28;20483;-78
2023/03/23 05:34:58;;;;;;;20.33;13.63;;;;;;;;;;5112910;28;20637;-79
2023/03/23 05:37:25;;;;;;;17.77;12.95;;;;;;;;;;5113113;28;20447;-79
2023/03/23 05:39:55;;;;;;;20.20;13.30;;;;;;;;;;5112695;28;20129;-78
2023/03/23 05:42:22;;;;;;;18.13;13.20;;;;;;;;;;5112856;28;20028;-79
2023/03/23 05:44:47;;;;;;;20.88;13.88;;;;;;;;;;5112612;28;20069;-78
2023/03/23 05:47:14;;;;;;;18.83;13.52;;;;;;;;;;5112649;28;20023;-78
2023/03/23 05:49:40;;;;;;;18.88;13.60;;;;;;;;;;5112260;28;20023;-79
2023/03/23 05:52:06;;;;;;;21.92;13.52;;;;;;;;;;5112975;28;20061;-78
2023/03/23 05:54:32;;;;;;;18.58;13.30;;;;;;;;;;5112339;28;20521;-79
2023/03/23 05:56:58;;;;;;;22.63;13.98;;;;;;;;;;5112641;28;20020;-79
2023/03/23 05:59:24;;;;;;;22.25;13.95;;;;;;;;;;5112709;28;20024;-79
2023/03/23 06:01:53;;;;;;;20.15;13.80;;;;;;;;;;5112252;28;20046;-78
2023/03/23 06:04:19;;;;;;;21.45;13.77;;;;;;;;;;5112399;28;20081;-79
2023/03/23 06:06:45;;;;;;;20.58;14.10;;;;;;;;;;5112042;28;20468;-79
2023/03/23 06:09:11;;;;;;;19.80;13.85;;;;;;;;;;5112464;28;20027;-79
2023/03/23 06:11:37;;;;;;;21.67;14.05;;;;;;;;;;5112250;28;20039;-79
2023/03/23 06:14:04;;;;;;;24.45;14.40;;;;;;;;;;5112355;28;20015;-81
2023/03/23 06:16:30;;;;;;;20.67;13.65;;;;;;;;;;5112223;28;20023;-80
2023/03/23 06:18:56;;;;;;;18.77;13.15;;;;;;;;;;5112391;28;20020;-81
2023/03/23 06:21:23;;;;;;;21.85;13.65;;;;;;;;;;5112348;28;20102;-81
2023/03/23 06:23:50;;;;;;;19.60;13.25;;;;;;;;;;5111926;28;20049;-81
2023/03/23 06:26:18;;;;;;;27.08;12.38;;;;;;;;;;5112208;28;20030;-79
2023/03/23 06:28:44;;;;;;;19.63;13.10;;;;;;;;;;5112049;28;20070;-81
2023/03/23 06:31:11;;;;;;;19.98;13.30;;;;;;;;;;5111664;28;20135;-80
2023/03/23 06:33:37;;;;;;;22.23;11.88;;;;;;;;;;5111966;28;20149;-81
2023/03/23 06:36:04;;;;;;;18.38;12.35;;;;;;;;;;5112218;28;20039;-80
2023/03/23 06:38:30;;;;;;;17.88;12.48;;;;;;;;;;5112247;28;20024;-83
2023/03/23 06:40:56;;;;;;;18.45;12.27;;;;;;;;;;5112478;28;20024;-80
2023/03/23 06:43:23;;;;;;;19.20;12.43;;;;;;;;;;5112595;28;20027;-81
2023/03/23 06:45:50;;;;;;;16.88;12.02;;;;;;;;;;5112572;28;20024;-81
2023/03/23 06:48:16;;;;;;;18.42;12.20;;;;;;;;;;5112606;28;20396;-80
2023/03/23 06:50:46;;;;;;;18.08;12.07;;;;;;;;;;5112338;28;20020;-80
2023/03/23 06:53:12;;;;;;;17.48;11.98;;;;;;;;;;5112684;28;20022;-80
2023/03/23 06:55:38;;;;;;;18.33;12.40;;;;;;;;;;5112892;28;20031;-81
2023/03/23 06:58:05;;;;;;;19.25;11.80;;;;;;;;;;5112884;28;20024;-81
2023/03/23 07:00:32;;;;;;;15.27;12.35;;;;;;;;;;5113120;28;20036;-81
2023/03/23 07:02:58;;;;;;;15.80;11.63;;;;;;;;;;5114297;28;20028;-82
2023/03/23 07:05:25;;;;;;;16.63;11.95;;;;;;;;;;5112664;28;20020;-83
2023/03/23 07:07:51;;;;;;;14.73;11.48;;;;;;;;;;5111792;28;20028;-81
2023/03/23 07:10:17;;;;;;;16.52;11.73;;;;;;;;;;5111889;28;20031;-81
2023/03/23 07:12:43;;;;;;;15.55;11.52;;;;;;;;;;5111472;28;20024;-81
2023/03/23 07:15:10;;;;;;;14.98;11.07;;;;;;;;;;5111757;28;20409;-81
2023/03/23 07:17:37;;;;;;;14.43;10.88;;;;;;;;;;5113401;28;20030;-81
2023/03/23 07:20:04;;;;;;;15.85;11.52;;;;;;;;;;5115940;28;20106;-81
2023/03/23 07:22:30;;;;;;;14.35;11.82;;;;;;;;;;5115603;28;20034;-82
2023/03/23 07:24:56;;;;;;;15.30;10.75;;;;;;;;;;5115482;28;20024;-81
2023/03/23 07:27:23;;;;;;;16.35;11.85;;;;;;;;;;5116244;28;20494;-82
2023/03/23 07:29:49;;;;;;;15.43;11.52;;;;;;;;;;5115542;28;20040;-79
2023/03/23 07:32:15;;;;;;;15.02;10.80;;;;;;;;;;5115623;28;20456;-79
2023/03/23 07:34:41;;;;;;;14.70;10.82;;;;;;;;;;5115886;28;20023;-80
2023/03/23 07:37:07;;;;;;;13.32;10.88;;;;;;;;;;5116347;28;20073;-80
2023/03/23 07:39:33;;;;;;;14.52;11.10;;;;;;;;;;5115726;28;20024;-80
2023/03/23 07:42:00;;;;;;;15.30;11.18;;;;;;;;;;5115624;28;20023;-81
2023/03/23 07:44:26;;;;;;;13.93;10.85;;;;;;;;;;5115441;28;20027;-81
2023/03/23 07:46:52;;;;;;;16.13;11.13;;;;;;;;;;5114918;28;20099;-81
2023/03/23 07:49:18;;;;;;;16.50;11.27;;;;;;;;;;5115406;28;20028;-81
2023/03/23 07:51:45;;;;;;;13.73;11.05;;;;;;;;;;5115129;28;20040;-80
2023/03/23 07:54:11;;;;;;;14.93;11.07;;;;;;;;;;5115147;28;20440;-81
2023/03/23 07:56:39;;;;;;;14.57;10.73;;;;;;;;;;5115335;28;20368;-80
2023/03/23 07:59:05;;;;;;;13.95;10.00;;;;;;;;;;5115071;28;20020;-81
2023/03/23 08:01:32;;;;;;;14.57;10.95;;;;;;;;;;5115014;28;20028;-82
2023/03/23 08:03:59;;;;;;;14.43;11.32;;;;;;;;;;5115249;28;20028;-79
2023/03/23 08:06:25;;;;;;;19.95;14.48;;;;;;;;;;5115388;28;20484;-81
2023/03/23 08:08:51;;;;;;;17.95;13.70;;;;;;;;;;5114977;28;20035;-81
2023/03/23 08:11:19;;;;;;;19.38;14.40;;;;;;;;;;5116096;28;20039;-81
2023/03/23 08:13:45;;;;;;;16.83;13.88;;;;;;;;;;5115289;28;20023;-82
2023/03/23 08:16:13;;;;;;;18.40;14.30;;;;;;;;;;5117145;28;20024;-81
2023/03/23 08:18:39;;;;;;;18.35;14.05;;;;;;;;;;5114599;28;20049;-80
2023/03/23 08:21:06;;;;;;;21.58;14.25;;;;;;;;;;5114685;28;20464;-81
2023/03/23 08:23:32;;;;;;;22.35;17.25;;;;;;;;;;5114823;28;20035;-83
2023/03/23 08:25:58;;;;;;;21.52;16.35;;;;;;;;;;5115088;28;20364;-80
2023/03/23 08:28:24;;;;;;;25.23;16.80;;;;;;;;;;5114904;28;20196;-82
2023/03/23 08:30:50;;;;;;;22.90;15.65;;;;;;;;;;5114114;28;20058;-81
2023/03/23 08:33:17;;;;;;;21.27;15.85;;;;;;;;;;5115202;28;20028;-82
2023/03/23 08:35:43;;;;;;;23.13;16.50;;;;;;;;;;5115415;28;20027;-81
2023/03/23 08:38:11;;;;;;;21.20;15.30;;;;;;;;;;5115876;28;20031;-82
2023/03/23 08:40:38;;;;;;;22.52;15.90;;;;;;;;;;5114962;28;20032;-84
2023/03/23 08:43:04;;;;;;;20.08;15.65;;;;;;;;;;5119554;28;20396;-83
2023/03/23 08:45:30;;;;;;;25.80;16.77;;;;;;;;;;5113380;28;20065;-80
2023/03/23 08:47:56;;;;;;;24.70;16.35;;;;;;;;;;5114141;28;20345;-84
2023/03/23 08:50:24;;;;;;;22.08;16.23;;;;;;;;;;5119736;28;20031;-82
2023/03/23 08:52:50;;;;;;;23.73;17.00;;;;;;;;;;5123801;28;20108;-80
2023/03/23 08:55:17;;;;;;;25.17;16.25;;;;;;;;;;5115421;28;20188;-82
2023/03/23 08:57:44;;;;;;;22.73;16.08;;;;;;;;;;5115617;28;20035;-82
2023/03/23 09:00:18;;;;;;;20.77;15.80;;;;;;;;;;5115677;28;20056;-84
2023/03/23 09:02:45;;;;;;;28.20;17.52;;;;;;;;;;5116929;28;20039;-81
2023/03/23 09:05:11;;;;;;;22.38;16.13;;;;;;;;;;5114958;28;20024;-83
2023/03/23 09:07:41;;;;;;;22.55;15.98;;;;;;;;;;5113813;28;20032;-83
2023/03/23 09:10:09;;;;;;;25.08;16.15;;;;;;;;;;5114776;28;20031;-80
2023/03/23 09:12:35;;;;;;;25.88;15.27;;;;;;;;;;5113544;28;20023;-84
2023/03/23 09:15:05;;;;;;;25.13;15.85;;;;;;;;;;5115116;28;20096;-84
2023/03/23 09:17:31;;;;;;;19.58;14.30;;;;;;;;;;5114843;28;20042;-81
2023/03/23 09:19:58;;;;;;;25.77;13.98;;;;;;;;;;5114855;28;20170;-81
2023/03/23 09:22:24;;;;;;;24.50;13.73;;;;;;;;;;5114882;28;20020;-79
2023/03/23 09:24:51;;;;;;;23.67;13.65;;;;;;;;;;5114986;28;20023;-82
2023/03/23 09:27:19;;;;;;;18.77;13.07;;;;;;;;;;5116135;28;20023;-83
2023/03/23 09:29:46;;;;;;;21.13;12.23;;;;;;;;;;5114291;28;20048;-83
2023/03/23 09:32:13;;;;;;;15.88;11.10;;;;;;;;;;5114107;28;20521;-84
2023/03/23 09:34:39;;;;;;;16.05;11.73;;;;;;;;;;5113802;28;20106;-81
2023/03/23 09:37:06;;;;;;;17.80;11.98;;;;;;;;;;5114916;28;20023;-83
2023/03/23 09:39:32;;;;;;;18.42;12.10;;;;;;;;;;5113590;28;20488;-83
2023/03/23 09:42:10;;;;;;;16.50;11.02;;;;;;;;;;5116440;28;20019;-83
2023/03/23 09:44:48;;;;;;;16.27;11.27;;;;;;;;;;5116984;28;20505;-84
2023/03/23 09:52:38;;;;;;;17.20;11.18;;;;;;;;;;5050523;28;20139;-80
2023/03/23 09:55:04;;;;;;;15.90;10.48;;;;;;;;;;5050438;28;20039;-82
2023/03/23 10:00:16;;;;;;;14.93;10.52;;;;;;;;;;5071431;28;20168;-80
2023/03/23 10:02:47;;;;;;;16.67;11.35;;;;;;;;;;5072738;28;20032;-80
2023/03/23 10:07:53;;;;;;;16.65;11.02;;;;;;;;;;5087359;28;20392;-81
2023/03/23 10:10:20;;;;;;;17.80;11.27;;;;;;;;;;5073245;28;20037;-82
2023/03/23 10:12:52;;;;;;;15.82;10.38;;;;;;;;;;5070245;28;20033;-80
2023/03/23 10:15:22;;;;;;;14.25;9.13;;;;;;;;;;5072438;28;20020;-81
2023/03/23 10:20:54;;;;;;;11.65;8.30;;;;;;;;;;5131314;27;20371;-79
2023/03/23 10:26:02;;;;;;;12.48;8.38;;;;;;;;;;5051377;28;20373;-79
2023/03/23 10:31:18;;;;;;;10.63;7.90;;;;;;;;;;5070188;28;20433;-80
2023/03/23 10:33:46;;;;;;;11.93;8.45;;;;;;;;;;5070434;28;20025;-80
2023/03/23 10:38:50;;;;;;;13.45;8.45;;;;;;;;;;5069841;28;20188;-78
2023/03/23 10:41:17;;;;;;;11.45;8.50;;;;;;;;;;5070190;28;20473;-79
2023/03/23 10:43:44;;;;;;;11.23;7.57;;;;;;;;;;5076089;28;20035;-78
2023/03/23 10:46:26;;;;;;;16.83;8.82;;;;;;;;;;5070590;28;20092;-82
2023/03/23 10:48:53;;;;;;;13.82;9.00;;;;;;;;;;5068181;28;20067;-85
2023/03/23 10:51:21;;;;;;;11.85;8.68;;;;;;;;;;5073962;28;20061;-82
2023/03/23 10:53:52;;;;;;;14.10;8.23;;;;;;;;;;5075180;28;20092;-80
2023/03/23 10:59:12;;;;;;;10.57;8.50;;;;;;;;;;5095740;27;20437;-84
2023/03/23 11:01:38;;;;;;;10.35;7.43;;;;;;;;;;5094309;28;20055;-81
2023/03/23 11:04:11;;;;;;;10.38;8.35;;;;;;;;;;5089834;28;20051;-79
2023/03/23 11:06:41;;;;;;;21.83;8.27;;;;;;;;;;5090746;28;20032;-79
2023/03/23 11:09:16;;;;;;;14.48;8.48;;;;;;;;;;5089545;28;20052;-80
2023/03/23 11:11:43;;;;;;;11.40;7.78;;;;;;;;;;5085877;28;20072;-81
2023/03/23 11:14:20;;;;;;;12.32;7.70;;;;;;;;;;5076381;28;20033;-77
2023/03/23 11:16:55;;;;;;;10.82;7.75;;;;;;;;;;5082731;28;20053;-80
2023/03/23 11:19:25;;;;;;;9.65;7.35;;;;;;;;;;5090516;28;20016;-79
2023/03/23 11:21:53;;;;;;;10.55;7.10;;;;;;;;;;5089914;28;20397;-80
2023/03/23 11:24:21;;;;;;;8.60;6.82;;;;;;;;;;5091879;28;20021;-80
2023/03/23 11:26:48;;;;;;;8.73;7.00;;;;;;;;;;5077339;28;20025;-79
2023/03/23 11:29:16;;;;;;;10.40;7.22;;;;;;;;;;5074335;28;20029;-81
2023/03/23 11:32:06;;;;;;;12.88;6.47;;;;;;;;;;5086561;28;20051;-83
2023/03/23 11:34:36;;;;;;;10.30;6.80;;;;;;;;;;5089261;28;20477;-79
2023/03/23 11:39:57;;;;;;;7.15;6.20;;;;;;;;;;5070459;28;20426;-79
2023/03/23 11:42:35;;;;;;;9.68;6.38;;;;;;;;;;5064443;28;20036;-79
2023/03/23 11:48:06;;;;;;;10.23;5.97;;;;;;;;;;5090914;27;20378;-79
2023/03/23 11:50:34;;;;;;;10.20;6.05;;;;;;;;;;5093170;28;20020;-82
2023/03/23 11:53:16;;;;;;;9.05;6.07;;;;;;;;;;5092126;28;20036;-81
2023/03/23 11:58:24;;;;;;;9.65;5.90;;;;;;;;;;5072077;28;20379;-80
2023/03/23 12:00:56;;;;;;;7.22;5.90;;;;;;;;;;5072576;28;20622;-81
2023/03/23 12:03:23;;;;;;;8.52;5.97;;;;;;;;;;5071821;28;20028;-82
2023/03/23 12:08:51;;;;;;;10.75;6.07;;;;;;;;;;5075479;28;20376;-82
2023/03/23 12:14:10;;;;;;;7.10;5.90;;;;;;;;;;5075375;28;20430;-80
2023/03/23 12:25:01;;;;;;;13.38;5.63;;;;;;;;;;5146558;27;20373;-82
2023/03/23 12:27:36;;;;;;;10.00;6.10;;;;;;;;;;5112543;28;20020;-83
2023/03/23 12:43:19;;;;;;;8.25;5.55;;;;;;;;;;5051874;28;20200;-80
2023/03/23 12:46:05;;;;;;;14.32;5.90;;;;;;;;;;5049714;28;20037;-81
2023/03/23 12:48:37;;;;;;;8.18;5.15;;;;;;;;;;5049009;28;20087;-84
2023/03/23 12:53:45;;;;;;;7.88;5.32;;;;;;;;;;5091605;28;20383;-88
2023/03/23 12:56:20;;;;;;;7.35;5.50;;;;;;;;;;5093943;28;20024;-87
2023/03/23 12:58:47;;;;;;;9.18;5.93;;;;;;;;;;5092940;27;20054;-83
2023/03/23 13:01:30;;;;;;;8.43;5.30;;;;;;;;;;5089679;28;20025;-83
2023/03/23 13:03:58;;;;;;;8.57;5.18;;;;;;;;;;5090713;28;20024;-82
2023/03/23 13:11:57;;;;;;;7.18;5.35;;;;;;;;;;5046112;28;20428;-87
2023/03/23 13:25:14;;;;;;;7.70;5.40;;;;;;;;;;5124783;27;20382;-84
2023/03/23 13:27:42;;;;;;;7.03;5.03;;;;;;;;;;5090762;28;20045;-81
2023/03/23 13:30:20;;;;;;;9.27;5.05;;;;;;;;;;5090777;28;20123;-87
2023/03/23 13:32:46;;;;;;;8.93;5.40;;;;;;;;;;5089780;28;20055;-82
2023/03/23 13:35:15;;;;;;;6.68;5.30;;;;;;;;;;5089586;28;20066;-80
2023/03/23 13:37:45;;;;;;;8.45;5.15;;;;;;;;;;5089631;28;20070;-80
2023/03/23 13:42:51;;;;;;;5.93;4.75;;;;;;;;;;5048966;28;20439;-82
2023/03/23 13:50:59;;;;;;;8.93;5.10;;;;;;;;;;5050426;28;20742;-80
2023/03/23 13:53:34;;;;;;;9.20;5.00;;;;;;;;;;5049377;28;20494;-81
2023/03/23 13:56:08;;;;;;;7.18;5.05;;;;;;;;;;5049283;28;20035;-81
2023/03/23 13:58:44;;;;;;;7.10;5.03;;;;;;;;;;5049398;28;20033;-81
2023/03/23 14:01:16;;;;;;;8.38;4.93;;;;;;;;;;5050558;28;20045;-81
2023/03/23 14:03:44;;;;;;;8.30;5.40;;;;;;;;;;5049583;28;20029;-80
2023/03/23 14:06:15;;;;;;;7.43;5.20;;;;;;;;;;5049338;28;20091;-80
2023/03/23 14:08:45;;;;;;;8.63;5.40;;;;;;;;;;5052938;28;20063;-81
2023/03/23 14:11:20;;;;;;;8.77;5.43;;;;;;;;;;5050714;28;20541;-80
2023/03/23 14:16:31;;;;;;;12.90;5.90;;;;;;;;;;5049982;28;20381;-79
2023/03/23 14:18:59;;;;;;;11.10;5.80;;;;;;;;;;5049212;28;20033;-79
2023/03/23 14:24:12;;;;;;;7.47;4.85;;;;;;;;;;5049569;28;20920;-79
2023/03/23 14:26:38;;;;;;;9.73;5.13;;;;;;;;;;5050300;28;20061;-83
2023/03/23 14:29:05;;;;;;;8.85;5.55;;;;;;;;;;5049256;28;20025;-79
2023/03/23 14:31:32;;;;;;;6.32;5.10;;;;;;;;;;5048791;28;20098;-79
2023/03/23 14:34:01;;;;;;;12.00;5.47;;;;;;;;;;5048634;28;20064;-80
2023/03/23 14:36:29;;;;;;;7.00;5.15;;;;;;;;;;5050039;28;20455;-83
2023/03/23 14:38:57;;;;;;;9.77;5.40;;;;;;;;;;5050153;28;20029;-82
2023/03/23 14:41:24;;;;;;;9.10;5.03;;;;;;;;;;5049214;28;20060;-84
2023/03/23 14:43:50;;;;;;;7.05;4.97;;;;;;;;;;5048823;28;20033;-83
2023/03/23 14:46:16;;;;;;;10.05;5.20;;;;;;;;;;5049018;28;20467;-83
2023/03/23 14:48:43;;;;;;;9.00;5.05;;;;;;;;;;5048835;28;20037;-83
2023/03/23 14:51:17;;;;;;;7.80;5.22;;;;;;;;;;5049004;28;20522;-84
2023/03/23 14:53:43;;;;;;;9.25;4.97;;;;;;;;;;5048617;28;20474;-83
2023/03/23 14:56:14;;;;;;;10.70;5.50;;;;;;;;;;5049445;28;20029;-84
2023/03/23 14:58:44;;;;;;;10.05;5.32;;;;;;;;;;5048688;28;20033;-83
2023/03/23 15:01:12;;;;;;;9.63;5.60;;;;;;;;;;5048364;28;20478;-82
2023/03/23 15:03:43;;;;;;;12.05;5.57;;;;;;;;;;5048595;28;20495;-83
2023/03/23 15:06:13;;;;;;;13.07;5.80;;;;;;;;;;5048652;28;20029;-83
2023/03/23 15:08:39;;;;;;;13.57;6.05;;;;;;;;;;5048870;28;20033;-82
2023/03/23 15:11:12;;;;;;;18.35;6.03;;;;;;;;;;5048565;28;20025;-84
2023/03/23 15:13:43;;;;;;;9.90;5.97;;;;;;;;;;5048267;28;20075;-84
2023/03/23 15:16:14;;;;;;;9.68;5.53;;;;;;;;;;5048709;28;20029;-82
2023/03/23 15:18:41;;;;;;;10.73;6.18;;;;;;;;;;5054653;28;20052;-83
2023/03/23 15:21:11;;;;;;;10.40;5.45;;;;;;;;;;5057777;28;20025;-83
2023/03/23 15:23:41;;;;;;;10.38;5.72;;;;;;;;;;5056111;28;20136;-82
2023/03/23 15:26:16;;;;;;;11.18;8.00;;;;;;;;;;5051016;28;20029;-81
2023/03/23 15:28:42;;;;;;;17.17;9.10;;;;;;;;;;5049802;28;20057;-81
2023/03/23 15:31:08;;;;;;;13.93;8.98;;;;;;;;;;5051232;28;20017;-81
2023/03/23 15:33:35;;;;;;;26.23;10.05;;;;;;;;;;5047104;28;20117;-80
2023/03/23 15:36:05;;;;;;;25.48;10.20;;;;;;;;;;5036059;28;20045;-80
2023/03/23 15:38:33;;;;;;;19.55;9.43;;;;;;;;;;5035006;28;20498;-81
2023/03/23 15:41:00;;;;;;;14.25;8.57;;;;;;;;;;5035239;28;20025;-82
2023/03/23 15:43:27;;;;;;;10.23;7.82;;;;;;;;;;5037353;28;20033;-81
2023/03/23 15:48:31;;;;;;;10.50;7.20;;;;;;;;;;5044843;28;20181;-83
2023/03/23 15:50:57;;;;;;;10.93;6.60;;;;;;;;;;5038638;28;20034;-81
2023/03/23 15:56:04;;;;;;;10.27;6.43;;;;;;;;;;5070523;28;20372;-86
2023/03/23 15:58:31;;;;;;;11.07;6.75;;;;;;;;;;5069896;28;20060;-81
2023/03/23 16:00:58;;;;;;;11.05;6.10;;;;;;;;;;5070654;28;20083;-85
2023/03/23 16:03:26;;;;;;;10.90;6.32;;;;;;;;;;5071188;28;20033;-86
2023/03/23 16:05:53;;;;;;;14.23;6.35;;;;;;;;;;5062172;28;20103;-84
2023/03/23 16:08:19;;;;;;;8.82;6.10;;;;;;;;;;5049357;28;20055;-85
2023/03/23 16:10:45;;;;;;;11.10;6.18;;;;;;;;;;5049537;28;20071;-85
2023/03/23 16:13:11;;;;;;;10.65;6.00;;;;;;;;;;5048313;28;20498;-84